Time;durP1;ratioP1;P1;durP2;ratioP2;P2;SDS_P1;SDS_P2;PMS_P1;PMS_P2;Temp;Humidity;BMP_temperature;BMP_pressure;BME280_temperature;BME280_humidity;BME280_pressure;Samples;Min_cycle;Max_cycle;Signal;HPM_P1;HPM_P2
2023/04/30 11:09:39;;;;;;;1.77;0.90;;;;;;;14.20;45.34;101763.72;5129056;27;20164;-62
2023/04/30 11:12:13;;;;;;;1.83;1.17;;;;;;;14.75;42.96;101757.78;5088809;27;62130;-69
2023/04/30 11:14:43;;;;;;;2.53;1.20;;;;;;;15.30;42.50;101762.84;5095059;28;20049;-68
2023/04/30 11:17:13;;;;;;;2.00;1.25;;;;;;;15.78;41.22;101758.22;5074683;28;20055;-67
2023/04/30 11:19:48;;;;;;;2.50;1.33;;;;;;;16.24;37.88;101756.59;5082555;28;20051;-61
2023/04/30 11:22:18;;;;;;;2.25;1.25;;;;;;;16.56;39.36;101743.25;5083101;28;20102;-65
2023/04/30 11:25:05;;;;;;;2.47;1.40;;;;;;;16.91;36.46;101744.34;5093645;28;20072;-66
2023/04/30 11:27:34;;;;;;;3.20;1.83;;;;;;;17.18;37.92;101740.72;5064749;28;20454;-64
2023/04/30 11:30:04;;;;;;;2.85;1.80;;;;;;;17.40;37.12;101741.13;5093978;28;20122;-65
2023/04/30 11:32:33;;;;;;;2.85;1.70;;;;;;;17.61;36.69;101738.06;5082378;28;20052;-64
2023/04/30 11:35:03;;;;;;;3.10;1.73;;;;;;;17.82;35.80;101739.63;5083637;28;20036;-64
2023/04/30 11:37:32;;;;;;;4.20;1.55;;;;;;;17.99;35.25;101739.59;5087614;28;20408;-65
2023/04/30 11:40:04;;;;;;;4.35;1.80;;;;;;;18.17;34.48;101725.72;5079208;28;20070;-66
2023/04/30 11:42:34;;;;;;;3.65;2.03;;;;;;;18.27;35.24;101743.09;5082123;28;20055;-61
2023/04/30 11:45:08;;;;;;;2.25;1.55;;;;;;;18.45;32.64;101741.13;5083886;28;20063;-66
2023/04/30 11:47:40;;;;;;;2.05;1.38;;;;;;;18.57;32.18;101736.19;5079488;28;20067;-64
2023/04/30 11:50:09;;;;;;;2.72;1.45;;;;;;;18.62;33.39;101739.34;5084360;28;20051;-68
2023/04/30 11:52:37;;;;;;;2.20;1.25;;;;;;;18.69;32.99;101734.00;5086927;28;20056;-65
2023/04/30 11:55:08;;;;;;;2.92;1.38;;;;;;;18.74;32.00;101726.91;5073170;28;20101;-70
2023/04/30 11:57:40;;;;;;;2.80;1.52;;;;;;;18.76;29.93;101732.28;5091217;27;20071;-66
2023/04/30 12:00:12;;;;;;;2.90;1.60;;;;;;;18.80;32.17;101723.47;5083276;28;20040;-67
2023/04/30 12:02:40;;;;;;;4.50;1.58;;;;;;;18.80;32.59;101723.47;5081993;27;20048;-67
2023/04/30 12:05:14;;;;;;;2.33;1.30;;;;;;;18.89;31.82;101716.91;5083632;28;20044;-69
2023/04/30 12:07:46;;;;;;;1.85;1.23;;;;;;;18.91;30.66;101716.75;5096564;27;20048;-69
2023/04/30 12:10:16;;;;;;;4.80;1.70;;;;;;;18.92;31.50;101712.94;5089280;28;20037;-68
2023/04/30 12:12:44;;;;;;;2.25;1.45;;;;;;;18.96;31.46;101711.59;5082969;28;20095;-64
2023/04/30 12:15:14;;;;;;;3.30;1.60;;;;;;;19.02;31.88;101708.13;5083315;28;20048;-68
2023/04/30 12:17:43;;;;;;;3.50;1.55;;;;;;;19.03;31.47;101696.00;5081379;27;20480;-69
2023/04/30 12:20:13;;;;;;;2.85;1.75;;;;;;;19.08;31.50;101692.69;5073787;28;20036;-69
2023/04/30 12:22:41;;;;;;;2.25;1.45;;;;;;;19.11;31.57;101696.00;5071151;28;20064;-64
2023/04/30 12:25:13;;;;;;;3.50;1.60;;;;;;;19.16;30.26;101699.13;5070691;28;20078;-63
2023/04/30 12:27:46;;;;;;;3.83;1.63;;;;;;;19.16;29.33;101703.81;5069926;28;20063;-71
2023/04/30 12:30:15;;;;;;;3.40;1.70;;;;;;;19.15;30.47;101708.50;5068416;28;20761;-69
2023/04/30 12:32:44;;;;;;;2.55;1.50;;;;;;;19.18;30.42;101696.19;5073665;28;20084;-69
2023/04/30 12:35:17;;;;;;;2.70;1.60;;;;;;;19.18;29.32;101690.63;5080320;28;20384;-64
2023/04/30 12:37:47;;;;;;;3.20;1.70;;;;;;;19.16;30.54;101681.59;5075968;28;20135;-65
2023/04/30 12:40:15;;;;;;;2.97;1.58;;;;;;;19.14;30.38;101686.47;5068111;28;20048;-69
2023/04/30 12:42:45;;;;;;;4.32;1.33;;;;;;;19.17;30.35;101692.53;5070858;27;20109;-64
2023/04/30 12:45:34;;;;;;;2.65;1.23;;;;;;;19.16;30.23;101681.59;5082630;28;20068;-69
2023/04/30 12:48:02;;;;;;;1.85;1.20;;;;;;;19.16;30.19;101682.47;5066067;28;20098;-66
2023/04/30 12:50:30;;;;;;;2.08;1.30;;;;;;;19.19;29.76;101678.50;5066302;28;20040;-65
2023/04/30 12:53:02;;;;;;;2.22;1.33;;;;;;;19.20;28.38;101686.69;5062601;28;20135;-65
2023/04/30 12:55:31;;;;;;;2.22;1.27;;;;;;;19.18;29.56;101677.63;5065862;28;20050;-66
2023/04/30 12:58:11;;;;;;;1.63;1.23;;;;;;;19.19;28.03;101682.16;5044548;28;20053;-65
2023/04/30 13:00:48;;;;;;;2.15;1.40;;;;;;;19.17;27.60;101681.44;5047823;28;20466;-65
2023/04/30 13:03:19;;;;;;;2.75;1.33;;;;;;;19.14;28.47;101678.13;5034918;28;20510;-64
2023/04/30 13:05:49;;;;;;;2.97;1.50;;;;;;;19.09;29.24;101667.56;5043576;28;20052;-65
2023/04/30 13:08:18;;;;;;;2.15;1.20;;;;;;;19.11;28.76;101670.16;5042918;28;20041;-64
2023/04/30 13:10:47;;;;;;;2.45;1.30;;;;;;;19.12;28.88;101658.03;5045122;28;20418;-64
2023/04/30 13:13:19;;;;;;;2.00;1.35;;;;;;;19.12;28.24;101658.03;5040887;28;20044;-65
2023/04/30 13:15:47;;;;;;;2.42;1.42;;;;;;;19.09;28.85;101664.78;5045510;28;20725;-63
2023/04/30 13:18:15;;;;;;;2.38;1.40;;;;;;;19.11;29.01;101661.84;5041614;28;20591;-64
2023/04/30 13:20:43;;;;;;;2.65;1.40;;;;;;;19.09;28.64;101663.91;5042430;28;20131;-64
2023/04/30 13:23:11;;;;;;;2.00;1.48;;;;;;;19.10;28.82;101646.22;5043470;28;20032;-64
2023/04/30 13:25:40;;;;;;;2.60;1.33;;;;;;;19.11;28.62;101656.28;5043134;28;20053;-64
2023/04/30 13:28:08;;;;;;;2.22;1.20;;;;;;;19.11;28.71;101653.53;5042107;28;20114;-64
2023/04/30 13:30:42;;;;;;;1.55;0.93;;;;;;;19.16;29.00;101642.75;5043859;28;20041;-64
2023/04/30 13:33:11;;;;;;;2.00;1.20;;;;;;;19.15;29.22;101650.22;5048544;28;20119;-63
2023/04/30 13:35:39;;;;;;;2.38;1.20;;;;;;;19.17;28.61;101647.28;5045976;28;20044;-63
2023/04/30 13:38:07;;;;;;;1.73;1.02;;;;;;;19.20;28.95;101644.16;5064912;28;20119;-64
2023/04/30 13:40:35;;;;;;;2.55;1.00;;;;;;;19.19;28.24;101634.09;5061666;28;20029;-64
2023/04/30 13:43:03;;;;;;;2.17;1.13;;;;;;;19.17;28.17;101645.38;5041576;28;20041;-63
2023/04/30 13:45:31;;;;;;;1.77;1.02;;;;;;;19.17;27.97;101642.59;5040999;28;20045;-59
2023/04/30 13:48:00;;;;;;;1.92;1.13;;;;;;;19.17;27.97;101631.50;5068968;28;20147;-60
2023/04/30 13:50:28;;;;;;;1.90;1.20;;;;;;;19.13;28.22;101629.25;5065049;28;20051;-59
2023/04/30 13:52:58;;;;;;;2.28;0.98;;;;;;;19.11;27.97;101620.22;5063898;28;20270;-60
2023/04/30 13:55:26;;;;;;;2.45;1.20;;;;;;;19.10;27.96;101615.72;5069470;28;20048;-59
2023/04/30 13:57:54;;;;;;;1.90;1.00;;;;;;;19.08;27.60;101617.78;5058520;28;20055;-61
2023/04/30 14:00:22;;;;;;;2.33;1.17;;;;;;;19.08;28.21;101621.44;5064184;28;20032;-59
2023/04/30 14:02:50;;;;;;;2.17;1.10;;;;;;;19.09;27.89;101611.19;5064899;28;20059;-61
2023/04/30 14:05:19;;;;;;;1.85;1.15;;;;;;;19.08;27.88;101615.88;5063233;28;20047;-60
2023/04/30 14:07:47;;;;;;;2.58;1.20;;;;;;;19.03;27.71;101610.00;5064191;28;20463;-60
2023/04/30 14:10:15;;;;;;;1.25;0.93;;;;;;;19.02;27.36;101608.25;5065335;28;20036;-60
2023/04/30 14:12:42;;;;;;;1.65;1.17;;;;;;;19.01;28.15;101602.88;5060487;28;20071;-59
2023/04/30 14:15:11;;;;;;;2.15;1.10;;;;;;;19.02;27.98;101601.84;5062700;28;20059;-59
2023/04/30 14:17:39;;;;;;;1.50;1.00;;;;;;;18.99;27.79;101597.47;5062519;28;20067;-61
2023/04/30 14:20:08;;;;;;;2.00;1.20;;;;;;;18.98;27.84;101595.75;5064911;28;20064;-60
2023/04/30 14:22:38;;;;;;;11.50;2.15;;;;;;;18.99;27.45;101597.47;5066094;28;20048;-58
2023/04/30 14:25:08;;;;;;;4.22;1.33;;;;;;;18.99;27.81;101593.84;5064258;28;20036;-60
2023/04/30 14:27:36;;;;;;;1.08;0.98;;;;;;;18.97;27.44;101590.38;5063366;28;20052;-58
2023/04/30 14:30:05;;;;;;;2.05;1.20;;;;;;;18.97;27.46;101584.81;5063620;28;20044;-59
2023/04/30 14:32:33;;;;;;;4.03;1.38;;;;;;;18.93;27.31;101580.66;5065505;28;20553;-59
2023/04/30 14:35:01;;;;;;;2.00;1.00;;;;;;;18.93;27.49;101575.13;5064091;28;20452;-60
2023/04/30 14:37:29;;;;;;;8.25;1.55;;;;;;;18.92;27.65;101571.47;5063447;28;20055;-60
2023/04/30 14:40:00;;;;;;;1.42;1.02;;;;;;;18.92;27.33;101578.94;5061087;28;20040;-60
2023/04/30 14:42:28;;;;;;;2.25;1.00;;;;;;;18.87;27.73;101573.91;5057302;28;20053;-58
2023/04/30 14:44:56;;;;;;;1.42;0.88;;;;;;;18.87;27.55;101566.47;5063438;28;20045;-66
2023/04/30 14:47:26;;;;;;;1.48;0.98;;;;;;;18.86;27.69;101563.84;5060902;28;20052;-62
2023/04/30 14:49:54;;;;;;;1.05;0.88;;;;;;;18.86;27.82;101555.53;5060569;28;20033;-63
2023/04/30 14:52:22;;;;;;;1.73;1.00;;;;;;;18.85;27.39;101568.53;5060911;28;20143;-62
2023/04/30 14:54:50;;;;;;;1.77;1.10;;;;;;;18.84;27.67;101572.34;5061651;28;20055;-63
2023/04/30 14:57:20;;;;;;;2.00;1.20;;;;;;;18.85;27.47;101562.97;5060851;28;20144;-62
2023/04/30 14:59:47;;;;;;;1.70;1.10;;;;;;;18.82;27.58;101560.53;5066751;28;20037;-70
2023/04/30 15:02:15;;;;;;;2.67;1.27;;;;;;;18.83;27.62;101558.63;5057817;28;20056;-64
2023/04/30 15:04:44;;;;;;;1.88;1.20;;;;;;;18.81;27.30;101544.94;5061126;28;20126;-65
2023/04/30 15:07:12;;;;;;;2.67;1.30;;;;;;;18.79;27.31;101548.94;5060040;28;20101;-67
2023/04/30 15:09:40;;;;;;;2.05;0.90;;;;;;;18.79;27.19;101552.59;5062575;28;20515;-66
2023/04/30 15:12:08;;;;;;;2.10;1.10;;;;;;;18.77;27.34;101539.91;5062491;28;20515;-66
2023/04/30 15:14:37;;;;;;;1.52;1.20;;;;;;;18.77;27.14;101538.00;5062976;28;20040;-66
2023/04/30 15:17:05;;;;;;;2.20;1.00;;;;;;;18.75;27.67;101542.84;5059268;28;20048;-66
2023/04/30 15:19:33;;;;;;;3.80;1.13;;;;;;;18.74;27.77;101540.25;5060651;28;20044;-66
2023/04/30 15:22:01;;;;;;;2.13;1.10;;;;;;;18.72;27.33;101540.41;5063015;28;20364;-66
2023/04/30 15:24:29;;;;;;;1.92;1.05;;;;;;;18.72;27.20;101537.63;5060815;28;20403;-65
2023/04/30 15:26:57;;;;;;;1.90;1.10;;;;;;;18.69;27.69;101532.47;5062189;28;20054;-70
2023/04/30 15:29:25;;;;;;;2.80;1.20;;;;;;;18.65;27.01;101533.81;5062655;28;20045;-70
2023/04/30 15:31:55;;;;;;;1.95;1.27;;;;;;;18.69;27.40;101531.59;5059559;28;20055;-69
2023/04/30 15:34:23;;;;;;;2.33;1.52;;;;;;;18.65;27.24;101527.41;5064551;28;20537;-69
2023/04/30 15:36:51;;;;;;;2.55;1.20;;;;;;;18.62;27.19;101525.00;5064283;28;20527;-70
2023/04/30 15:39:20;;;;;;;1.67;1.00;;;;;;;18.61;27.50;101515.81;5067444;28;20044;-69
2023/04/30 15:41:48;;;;;;;2.97;1.30;;;;;;;18.59;27.18;101517.00;5065222;28;20056;-70
2023/04/30 15:44:16;;;;;;;3.30;1.25;;;;;;;18.57;26.83;101521.84;5073760;28;20495;-69
2023/04/30 15:46:44;;;;;;;2.25;1.40;;;;;;;18.56;27.33;101522.88;5078233;28;20052;-70
2023/04/30 15:49:14;;;;;;;3.25;1.58;;;;;;;18.52;26.93;101516.84;5069057;28;20098;-69
2023/04/30 15:51:43;;;;;;;1.60;1.00;;;;;;;18.50;27.15;101521.69;5059489;22;20053;-75
2023/04/30 15:54:16;;;;;;;1.88;1.20;;;;;;;18.45;26.99;101510.22;4986517;28;20077;-75
2023/04/30 15:56:44;;;;;;;1.70;1.20;;;;;;;18.42;27.35;101513.31;5023672;28;20144;-75
2023/04/30 15:59:14;;;;;;;1.48;1.10;;;;;;;18.38;26.80;101510.03;5018723;28;20504;-75
2023/04/30 16:01:45;;;;;;;1.38;1.00;;;;;;;18.37;27.18;101512.97;5015349;28;20060;-75
2023/04/30 16:04:15;;;;;;;2.05;1.10;;;;;;;18.34;27.40;101511.38;5024012;28;20065;-75
2023/04/30 16:06:43;;;;;;;2.08;1.27;;;;;;;18.30;27.20;101498.94;5015049;28;20054;-75
2023/04/30 16:09:12;;;;;;;1.98;1.20;;;;;;;18.29;27.01;101499.97;5013114;28;20046;-75
2023/04/30 16:11:40;;;;;;;1.85;1.05;;;;;;;18.25;27.49;101495.78;5024101;28;20108;-75
2023/04/30 16:14:08;;;;;;;1.40;1.00;;;;;;;18.23;27.54;101492.31;5020312;28;20519;-75
2023/04/30 16:16:36;;;;;;;2.47;1.30;;;;;;;18.22;27.43;101496.13;5023015;28;20076;-75
2023/04/30 16:19:06;;;;;;;2.03;1.27;;;;;;;18.18;27.56;101499.41;5022683;28;20049;-75
2023/04/30 16:21:37;;;;;;;2.17;1.17;;;;;;;18.15;27.23;101495.06;5023197;28;20061;-76
2023/04/30 16:24:05;;;;;;;1.70;1.00;;;;;;;18.14;27.04;101485.03;5008088;28;20057;-75
2023/04/30 16:26:35;;;;;;;1.40;1.00;;;;;;;18.11;27.10;101494.53;5011807;28;20117;-75
2023/04/30 16:29:03;;;;;;;1.50;0.90;;;;;;;18.10;27.47;101487.25;5020361;28;20116;-75
2023/04/30 16:31:31;;;;;;;2.30;1.10;;;;;;;18.06;27.41;101485.00;5017973;28;20070;-75
2023/04/30 16:33:59;;;;;;;1.70;1.05;;;;;;;18.07;27.67;101487.59;5002824;28;20584;-75
2023/04/30 16:36:27;;;;;;;1.80;0.90;;;;;;;18.06;27.19;101477.53;4995838;28;20046;-71
2023/04/30 16:38:57;;;;;;;1.55;1.20;;;;;;;18.09;27.73;101482.75;5018655;28;20068;-75
2023/04/30 16:41:25;;;;;;;1.83;1.02;;;;;;;18.06;27.64;101480.31;5020547;28;20059;-71
2023/04/30 16:43:53;;;;;;;2.97;1.20;;;;;;;18.06;27.12;101480.31;4996790;28;20050;-72
2023/04/30 16:46:21;;;;;;;2.35;1.20;;;;;;;18.03;27.31;101486.19;5023778;28;20060;-71
2023/04/30 16:48:49;;;;;;;2.53;1.25;;;;;;;18.01;27.54;101479.09;5021920;28;20055;-71
2023/04/30 16:51:16;;;;;;;1.65;0.93;;;;;;;17.99;27.31;101473.72;5019254;28;20263;-71
2023/04/30 16:53:44;;;;;;;1.73;1.05;;;;;;;17.96;27.74;101479.59;5024157;28;20496;-71
2023/04/30 16:56:13;;;;;;;1.77;0.90;;;;;;;17.96;27.45;101473.19;5019049;28;20394;-71
2023/04/30 16:58:41;;;;;;;1.98;1.10;;;;;;;17.91;27.09;101481.13;5022784;28;20050;-74
2023/04/30 17:01:10;;;;;;;1.55;0.90;;;;;;;17.89;27.54;101472.13;5020364;28;20041;-71
2023/04/30 17:03:38;;;;;;;1.67;1.00;;;;;;;17.85;27.42;101479.91;5023618;28;20045;-71
2023/04/30 17:06:06;;;;;;;2.45;1.00;;;;;;;17.82;27.48;101476.59;5015657;28;20061;-72
2023/04/30 17:08:34;;;;;;;1.38;1.00;;;;;;;17.77;27.33;101471.56;5022584;28;20285;-72
2023/04/30 17:11:02;;;;;;;1.48;0.95;;;;;;;17.74;27.62;101472.75;5019180;28;20072;-73
2023/04/30 17:13:32;;;;;;;3.05;1.17;;;;;;;17.74;27.20;101469.13;5014207;28;20052;-71
2023/04/30 17:15:59;;;;;;;2.10;1.10;;;;;;;17.67;27.53;101465.25;5020331;28;20050;-71
2023/04/30 17:18:29;;;;;;;2.40;0.98;;;;;;;17.62;27.62;101457.44;5020001;28;20457;-71
2023/04/30 17:20:57;;;;;;;1.63;1.15;;;;;;;17.61;27.37;101458.47;5006431;28;20532;-73
2023/04/30 17:23:25;;;;;;;2.25;1.08;;;;;;;17.56;27.74;101455.34;5015752;28;20068;-73
2023/04/30 17:25:52;;;;;;;2.60;1.10;;;;;;;17.53;27.51;101457.56;5022043;28;20049;-71
2023/04/30 17:28:20;;;;;;;2.05;1.10;;;;;;;17.50;27.46;101447.69;5020099;28;20041;-72
2023/04/30 17:30:50;;;;;;;1.20;0.95;;;;;;;17.50;27.95;101455.13;5014724;28;20787;-71
2023/04/30 17:33:18;;;;;;;2.05;1.27;;;;;;;17.45;27.97;101460.31;5022995;28;20124;-72
2023/04/30 17:35:46;;;;;;;2.75;1.20;;;;;;;17.40;27.94;101450.59;5016612;28;20602;-72
2023/04/30 17:38:14;;;;;;;2.30;0.90;;;;;;;17.37;28.13;101453.69;5020829;28;20050;-72
2023/04/30 17:40:42;;;;;;;3.08;1.10;;;;;;;17.35;27.58;101453.00;5021223;28;20421;-72
2023/04/30 17:43:10;;;;;;;2.22;1.10;;;;;;;17.32;27.67;101455.19;5016180;28;20045;-72
2023/04/30 17:45:38;;;;;;;2.33;1.10;;;;;;;17.27;27.85;101461.25;5013964;28;20049;-71
2023/04/30 17:48:07;;;;;;;2.67;1.10;;;;;;;17.25;27.80;101452.22;5023377;28;20048;-72
2023/04/30 17:50:35;;;;;;;2.67;1.30;;;;;;;17.19;28.01;101452.88;5021132;28;20146;-72
2023/04/30 17:53:03;;;;;;;2.88;1.00;;;;;;;17.17;28.40;101449.41;5017157;28;20042;-71
2023/04/30 17:55:31;;;;;;;2.83;1.20;;;;;;;17.16;28.24;101449.56;5000851;28;20528;-71
2023/04/30 17:57:59;;;;;;;2.35;1.27;;;;;;;17.12;28.60;101451.81;5018249;28;20052;-72
2023/04/30 18:00:27;;;;;;;2.20;1.30;;;;;;;17.10;28.62;101451.09;5009711;28;20041;-72
2023/04/30 18:02:55;;;;;;;3.15;1.30;;;;;;;17.05;28.63;101447.97;5021030;28;20085;-72
2023/04/30 18:05:24;;;;;;;2.80;1.30;;;;;;;17.06;28.26;101448.84;5017920;28;20163;-72
2023/04/30 18:07:52;;;;;;;2.03;1.13;;;;;;;17.00;28.19;101445.66;5024319;28;20057;-72
2023/04/30 18:10:20;;;;;;;1.67;1.00;;;;;;;16.99;28.62;101443.06;5015308;28;20501;-72
2023/04/30 18:12:49;;;;;;;2.28;1.20;;;;;;;16.98;28.44;101439.47;5019424;28;20085;-72
2023/04/30 18:15:17;;;;;;;2.35;1.10;;;;;;;16.96;28.92;101438.72;5006583;28;20064;-72
2023/04/30 18:17:44;;;;;;;2.60;1.05;;;;;;;16.95;28.82;101445.25;5002143;28;20802;-71
2023/04/30 18:20:12;;;;;;;2.05;1.10;;;;;;;16.93;29.00;101444.56;5016864;28;20041;-71
2023/04/30 18:22:42;;;;;;;2.00;1.00;;;;;;;16.94;28.38;101445.44;5018284;28;20061;-72
2023/04/30 18:25:11;;;;;;;1.75;1.00;;;;;;;16.91;28.73;101446.59;5018178;28;20564;-72
2023/04/30 18:27:40;;;;;;;1.95;0.93;;;;;;;16.88;28.60;101441.41;5015807;28;20068;-72
2023/04/30 18:30:10;;;;;;;2.67;1.33;;;;;;;16.87;28.57;101444.34;5018077;28;20042;-72
2023/04/30 18:32:38;;;;;;;2.15;1.10;;;;;;;16.84;28.91;101442.75;5007280;28;20473;-71
2023/04/30 18:35:07;;;;;;;1.95;1.00;;;;;;;16.81;28.72;101445.88;5018403;28;20479;-73
2023/04/30 18:37:34;;;;;;;2.75;0.98;;;;;;;16.78;28.67;101440.63;5011769;28;20405;-70
2023/04/30 18:40:04;;;;;;;2.00;0.95;;;;;;;16.78;29.11;101450.84;5023587;28;20044;-73
2023/04/30 18:42:33;;;;;;;2.08;1.00;;;;;;;16.72;28.95;101444.06;5005746;28;20049;-73
2023/04/30 18:45:01;;;;;;;2.55;1.27;;;;;;;16.69;28.75;101451.78;5017018;28;20064;-73
2023/04/30 18:47:29;;;;;;;2.13;1.10;;;;;;;16.67;28.92;101445.53;5012236;28;20053;-72
2023/04/30 18:49:57;;;;;;;4.43;1.30;;;;;;;16.63;29.44;101439.50;5017875;28;20042;-72
2023/04/30 18:52:25;;;;;;;2.58;1.10;;;;;;;16.60;29.24;101437.91;5017435;28;20059;-72
2023/04/30 18:54:54;;;;;;;3.17;0.98;;;;;;;16.58;29.27;101445.47;5020590;28;20049;-72
2023/04/30 18:57:23;;;;;;;2.00;1.08;;;;;;;16.57;29.00;101441.00;5014512;28;20050;-73
2023/04/30 18:59:51;;;;;;;2.63;1.20;;;;;;;16.53;29.05;101442.34;5019832;28;20049;-73
2023/04/30 19:02:20;;;;;;;1.88;1.23;;;;;;;16.51;29.55;101437.97;5024822;28;20092;-72
2023/04/30 19:04:49;;;;;;;3.15;1.10;;;;;;;16.48;29.47;101436.44;5018767;28;20679;-72
2023/04/30 19:07:17;;;;;;;2.08;0.90;;;;;;;16.47;29.27;101434.69;5022441;28;20416;-72
2023/04/30 19:09:47;;;;;;;1.95;1.00;;;;;;;16.45;29.16;101442.25;5001428;28;20049;-72
2023/04/30 19:12:15;;;;;;;3.03;1.23;;;;;;;16.44;29.62;101442.41;5008499;28;20573;-72
2023/04/30 19:14:44;;;;;;;2.05;1.33;;;;;;;16.43;29.33;101444.31;5014249;28;20048;-72
2023/04/30 19:17:12;;;;;;;2.13;1.02;;;;;;;16.40;29.34;101441.00;5020218;28;20222;-72
2023/04/30 19:19:42;;;;;;;2.50;1.10;;;;;;;16.39;29.55;101451.19;4998627;28;20042;-72
2023/04/30 19:22:10;;;;;;;2.70;1.30;;;;;;;16.35;29.23;101447.00;5017380;28;20038;-72
2023/04/30 19:24:38;;;;;;;2.08;1.10;;;;;;;16.34;29.69;101445.25;4991772;28;20045;-72
2023/04/30 19:27:06;;;;;;;2.25;1.17;;;;;;;16.33;29.68;101453.72;5024141;28;20077;-72
2023/04/30 19:29:34;;;;;;;1.50;1.00;;;;;;;16.29;29.59;101444.88;5021723;28;20046;-72
2023/04/30 19:32:03;;;;;;;2.03;1.10;;;;;;;16.30;29.33;101454.03;5027789;28;20500;-74
2023/04/30 19:34:31;;;;;;;2.55;1.00;;;;;;;16.25;29.42;101451.72;5019559;28;20556;-72
2023/04/30 19:36:59;;;;;;;2.63;1.13;;;;;;;16.22;29.82;101461.22;5021086;28;20042;-72
2023/04/30 19:39:30;;;;;;;2.13;1.30;;;;;;;16.22;29.34;101460.34;5006736;28;20049;-72
2023/04/30 19:41:58;;;;;;;2.28;1.20;;;;;;;16.16;29.47;101459.06;5020950;28;20061;-72
2023/04/30 19:44:28;;;;;;;3.53;1.30;;;;;;;16.15;29.43;101470.25;5024535;28;20107;-71
2023/04/30 19:46:56;;;;;;;2.13;1.13;;;;;;;16.12;29.62;101465.03;5027134;28;20041;-71
2023/04/30 19:49:26;;;;;;;2.70;1.20;;;;;;;16.12;29.99;101460.38;5019311;28;20096;-70
2023/04/30 19:51:54;;;;;;;2.47;1.13;;;;;;;16.07;30.07;101461.88;5024930;28;20088;-71
2023/04/30 19:54:22;;;;;;;2.05;1.23;;;;;;;16.05;30.23;101466.69;5025856;28;20370;-71
2023/04/30 19:56:53;;;;;;;1.90;1.10;;;;;;;16.03;29.86;101463.19;5015083;28;20107;-71
2023/04/30 19:59:21;;;;;;;2.38;1.20;;;;;;;16.01;30.08;101462.47;5022284;28;20092;-71
2023/04/30 20:01:51;;;;;;;3.70;1.40;;;;;;;15.99;30.22;101459.91;5025843;28;20515;-71
2023/04/30 20:04:22;;;;;;;2.92;1.20;;;;;;;15.97;30.05;101450.88;5020834;28;20044;-72
2023/04/30 20:06:55;;;;;;;2.75;1.20;;;;;;;15.98;30.26;101457.28;5029051;28;20053;-72
2023/04/30 20:09:24;;;;;;;3.38;1.50;;;;;;;15.93;30.23;101456.84;5014560;28;20045;-73
2023/04/30 20:11:54;;;;;;;2.22;1.20;;;;;;;15.90;30.04;101455.28;5017917;28;20066;-71
2023/04/30 20:14:22;;;;;;;2.45;1.30;;;;;;;15.86;29.70;101460.25;5027438;28;20099;-72
2023/04/30 20:16:53;;;;;;;2.38;1.30;;;;;;;15.84;29.91;101456.75;5027973;28;20061;-72
2023/04/30 20:19:21;;;;;;;3.13;1.30;;;;;;;15.80;30.12;101452.59;5021037;28;20053;-72
2023/04/30 20:21:52;;;;;;;2.58;1.40;;;;;;;15.79;29.63;101458.25;5005707;28;20053;-71
2023/04/30 20:24:21;;;;;;;2.63;1.35;;;;;;;15.71;29.92;101452.63;5024925;28;20049;-71
2023/04/30 20:26:49;;;;;;;3.50;1.40;;;;;;;15.67;29.73;101445.72;5022018;28;20060;-71
2023/04/30 20:29:19;;;;;;;2.85;1.50;;;;;;;15.62;30.10;101448.91;5014321;28;20045;-71
2023/04/30 20:31:47;;;;;;;3.63;1.38;;;;;;;15.59;30.07;101448.38;5018204;28;20344;-72
2023/04/30 20:34:15;;;;;;;2.45;1.48;;;;;;;15.54;30.23;101454.31;5006884;28;20076;-72
2023/04/30 20:36:43;;;;;;;3.90;1.40;;;;;;;15.51;30.40;101443.56;5022439;28;20505;-71
2023/04/30 20:39:13;;;;;;;2.35;1.20;;;;;;;15.47;29.90;101448.53;4992463;28;20264;-71
2023/04/30 20:41:42;;;;;;;2.97;1.40;;;;;;;15.43;30.49;101440.72;5015001;28;20061;-72
2023/04/30 20:44:10;;;;;;;3.95;1.95;;;;;;;15.39;29.93;101447.56;5015265;28;20404;-71
2023/04/30 20:46:38;;;;;;;3.75;1.63;;;;;;;15.35;29.95;101448.88;5021475;28;20538;-70
2023/04/30 20:49:06;;;;;;;3.47;1.58;;;;;;;15.32;30.49;101444.53;5016502;28;20037;-71
2023/04/30 20:51:35;;;;;;;2.70;1.60;;;;;;;15.29;29.99;101433.78;5000073;28;20054;-71
2023/04/30 20:54:03;;;;;;;2.55;1.48;;;;;;;15.26;30.60;101441.50;5024947;28;20040;-72
2023/04/30 20:56:32;;;;;;;2.90;1.70;;;;;;;15.25;30.52;101446.16;5017762;28;20053;-71
2023/04/30 20:59:00;;;;;;;3.15;1.33;;;;;;;15.21;30.25;101441.94;5018307;28;20502;-71
2023/04/30 21:01:28;;;;;;;2.90;1.35;;;;;;;15.19;30.12;101440.34;5017478;28;20556;-72
2023/04/30 21:03:56;;;;;;;3.40;1.67;;;;;;;15.17;30.63;101442.41;5016137;28;20342;-72
2023/04/30 21:06:24;;;;;;;2.65;1.60;;;;;;;15.13;30.58;101434.41;5021278;28;20285;-72
2023/04/30 21:08:52;;;;;;;2.88;1.58;;;;;;;15.10;30.59;101429.19;5015867;28;20042;-71
2023/04/30 21:11:20;;;;;;;3.17;1.45;;;;;;;15.10;30.17;101431.94;5024560;28;20061;-71
2023/04/30 21:13:49;;;;;;;2.88;1.35;;;;;;;15.11;30.55;101432.81;5021821;28;20496;-71
2023/04/30 21:16:18;;;;;;;2.42;1.27;;;;;;;15.09;30.54;101432.13;5019407;28;20140;-71
2023/04/30 21:18:47;;;;;;;3.08;1.42;;;;;;;15.08;30.17;101425.75;5003536;28;20509;-71
2023/04/30 21:21:15;;;;;;;1.92;1.13;;;;;;;15.08;30.75;101425.75;5020508;28;20053;-71
2023/04/30 21:23:43;;;;;;;2.33;1.30;;;;;;;15.07;30.38;101414.84;5020131;28;20053;-70
2023/04/30 21:26:15;;;;;;;2.50;1.30;;;;;;;15.05;30.11;101420.50;5019021;28;20132;-70
2023/04/30 21:28:43;;;;;;;1.80;1.20;;;;;;;15.05;30.17;101420.50;5012644;28;20111;-71
2023/04/30 21:31:12;;;;;;;2.45;1.40;;;;;;;15.05;30.54;101420.50;5015148;28;20382;-71
2023/04/30 21:33:40;;;;;;;1.98;1.33;;;;;;;15.04;30.06;101417.91;5019409;28;20053;-71
2023/04/30 21:36:08;;;;;;;3.25;1.30;;;;;;;15.02;30.12;101411.66;5003823;28;20053;-70
2023/04/30 21:38:36;;;;;;;2.75;1.30;;;;;;;14.99;30.14;101414.75;5004730;28;20431;-72
2023/04/30 21:41:04;;;;;;;4.43;1.30;;;;;;;14.97;30.30;101416.78;5015926;28;20496;-72
2023/04/30 21:43:32;;;;;;;3.38;1.63;;;;;;;14.95;30.34;101414.16;5024505;28;20396;-72
2023/04/30 21:46:02;;;;;;;1.95;1.17;;;;;;;14.95;30.72;101411.41;5021684;28;20076;-72
2023/04/30 21:48:33;;;;;;;2.88;1.40;;;;;;;14.94;30.63;101408.78;5014633;28;20485;-73
2023/04/30 21:51:01;;;;;;;2.25;1.50;;;;;;;14.90;30.42;101411.00;5018203;28;20060;-72
2023/04/30 21:53:28;;;;;;;3.28;1.30;;;;;;;14.88;30.51;101404.75;5021599;28;20400;-72
2023/04/30 21:55:56;;;;;;;3.47;1.30;;;;;;;14.88;30.89;101407.50;5061885;22;20124;-85
2023/04/30 21:58:24;;;;;;;2.38;1.38;;;;;;;14.87;30.58;101400.25;5035333;28;20067;-85
2023/04/30 22:00:54;;;;;;;3.53;1.63;;;;;;;14.85;30.47;101405.03;5048218;28;20047;-85
2023/04/30 22:03:58;;;;;;;2.60;1.38;;;;;;;14.85;31.17;101402.28;5055262;28;20049;-85
2023/04/30 22:06:35;;;;;;;2.47;1.42;;;;;;;14.85;30.97;101401.44;5028973;28;20490;-84
2023/04/30 22:09:05;;;;;;;3.75;1.33;;;;;;;14.81;31.15;101388.97;5046554;28;20487;-85
2023/04/30 22:11:38;;;;;;;3.47;1.33;;;;;;;14.78;30.90;101390.13;5044476;28;20045;-85
2023/04/30 22:14:16;;;;;;;2.95;1.55;;;;;;;14.81;30.91;101383.47;5060658;28;20055;-86
2023/04/30 22:16:51;;;;;;;2.38;1.30;;;;;;;14.80;31.22;101388.09;5047326;28;20044;-84
2023/04/30 22:19:26;;;;;;;3.33;1.50;;;;;;;14.82;31.23;101385.19;5049899;28;20126;-84
2023/04/30 22:22:05;;;;;;;4.15;1.65;;;;;;;14.82;31.20;101382.44;5040620;28;20140;-85
2023/04/30 22:24:58;;;;;;;2.45;1.38;;;;;;;14.77;31.42;101383.75;5061881;28;20033;-84
2023/04/30 22:27:40;;;;;;;2.78;1.63;;;;;;;14.77;31.47;101378.22;5048685;28;20147;-84
2023/04/30 22:30:11;;;;;;;3.38;1.42;;;;;;;14.77;31.22;101380.13;5050392;28;20068;-85
2023/04/30 22:32:43;;;;;;;2.08;1.25;;;;;;;14.77;31.36;101380.13;5042816;28;20045;-85
2023/04/30 22:35:16;;;;;;;4.75;1.63;;;;;;;14.80;31.29;101376.19;5044540;28;20064;-86
2023/04/30 22:37:44;;;;;;;;;;;;;;;14.49;31.98;101376.44;5054717;28;20106;-85
2023/04/30 22:40:13;;;;;;;2.80;1.48;;;;;;;14.71;31.45;101377.97;5063702;28;19963;-85
2023/04/30 22:42:42;;;;;;;3.10;1.50;;;;;;;14.73;31.52;101376.81;5052383;28;20049;-85